createdAt,value
2018-06-13T00:01:40.364Z,7.80
2018-06-13T00:04:08.789Z,9.33
2018-06-13T00:06:37.112Z,9.40
2018-06-13T00:09:08.040Z,9.47
2018-06-13T00:11:36.361Z,8.40
2018-06-13T00:14:04.899Z,9.93
2018-06-13T00:16:33.219Z,9.67
2018-06-13T00:19:01.563Z,10.00
2018-06-13T00:21:29.883Z,10.40
2018-06-13T00:23:58.222Z,9.97
2018-06-13T00:26:26.608Z,9.80
2018-06-13T00:28:54.942Z,11.10
2018-06-13T00:31:23.258Z,9.87
2018-06-13T00:33:51.599Z,11.40
2018-06-13T00:36:19.923Z,12.10
2018-06-13T00:38:48.262Z,12.63
2018-06-13T00:41:16.595Z,11.50
2018-06-13T00:43:44.935Z,13.10
2018-06-13T00:46:13.256Z,11.97
2018-06-13T00:48:41.623Z,12.47
2018-06-13T00:51:09.967Z,12.37
2018-06-13T00:53:38.316Z,11.30
2018-06-13T00:56:18.083Z,12.67
2018-06-13T00:58:46.451Z,11.47
2018-06-13T01:01:14.859Z,11.70
2018-06-13T01:03:43.202Z,13.27
2018-06-13T01:06:11.536Z,12.13
2018-06-13T01:08:39.887Z,12.10
2018-06-13T01:11:08.226Z,12.27
2018-06-13T01:13:36.574Z,11.40
2018-06-13T01:16:04.955Z,10.80
2018-06-13T01:18:33.299Z,11.07
2018-06-13T01:21:01.631Z,12.77
2018-06-13T01:23:30.004Z,11.60
2018-06-13T01:25:58.346Z,12.27
2018-06-13T01:28:26.712Z,10.70
2018-06-13T01:30:55.044Z,11.97
2018-06-13T01:33:23.399Z,12.10
2018-06-13T01:35:51.739Z,12.33
2018-06-13T01:38:20.086Z,12.20
2018-06-13T01:40:48.423Z,10.60
2018-06-13T01:43:16.775Z,11.67
2018-06-13T01:45:45.112Z,11.50
2018-06-13T01:48:13.479Z,12.40
2018-06-13T01:50:56.211Z,10.40
2018-06-13T01:53:24.661Z,10.70
2018-06-13T01:55:52.991Z,10.03
2018-06-13T01:58:21.363Z,10.57
2018-06-13T02:00:49.799Z,11.10
2018-06-13T02:03:18.168Z,10.60
2018-06-13T02:05:46.507Z,10.77
2018-06-13T02:08:14.846Z,10.57
2018-06-13T02:10:43.185Z,9.97
2018-06-13T02:13:11.528Z,11.33
2018-06-13T02:15:39.879Z,9.60
2018-06-13T02:18:08.243Z,10.33
2018-06-13T02:20:36.575Z,11.23
2018-06-13T02:23:04.924Z,10.77
2018-06-13T02:25:33.275Z,10.23
2018-06-13T02:28:01.608Z,10.57
2018-06-13T02:30:29.955Z,9.50
2018-06-13T02:32:58.298Z,11.30
2018-06-13T02:35:26.683Z,10.70
2018-06-13T02:37:55.105Z,9.70
2018-06-13T02:40:23.466Z,9.40
2018-06-13T02:42:51.800Z,9.63
2018-06-13T02:45:20.147Z,10.07
2018-06-13T02:47:48.563Z,9.13
2018-06-13T02:50:16.915Z,9.30
2018-06-13T02:52:45.239Z,9.10
2018-06-13T02:55:13.579Z,9.30
2018-06-13T02:57:41.935Z,8.60
2018-06-13T03:00:10.280Z,8.63
2018-06-13T03:02:38.618Z,8.93
2018-06-13T03:05:06.962Z,8.80
2018-06-13T03:07:35.284Z,9.53
2018-06-13T03:10:03.683Z,8.80
2018-06-13T03:12:32.027Z,8.10
2018-06-13T03:15:00.402Z,8.77
2018-06-13T03:17:28.746Z,8.50
2018-06-13T03:19:57.119Z,9.47
2018-06-13T03:22:25.447Z,10.50
2018-06-13T03:24:53.806Z,9.27
2018-06-13T03:27:22.131Z,9.33
2018-06-13T03:29:50.466Z,9.50
2018-06-13T03:32:18.811Z,10.03
2018-06-13T03:34:47.158Z,10.07
2018-06-13T03:37:15.495Z,9.70
2018-06-13T03:39:43.837Z,10.23
2018-06-13T03:42:12.163Z,8.80
2018-06-13T03:44:40.553Z,10.10
2018-06-13T03:47:09.131Z,9.00
2018-06-13T03:49:37.462Z,8.40
2018-06-13T03:52:05.863Z,8.00
2018-06-13T03:54:34.203Z,8.30
2018-06-13T03:57:02.512Z,7.30
2018-06-13T03:59:30.842Z,7.97
2018-06-13T04:01:59.158Z,7.90
2018-06-13T04:04:27.470Z,8.00
2018-06-13T04:06:55.803Z,7.73
2018-06-13T04:09:24.191Z,8.10
2018-06-13T04:11:52.531Z,8.03
2018-06-13T04:14:20.847Z,7.73
2018-06-13T04:16:49.179Z,7.77
2018-06-13T04:19:17.496Z,7.70
2018-06-13T04:21:45.826Z,6.63
2018-06-13T04:24:14.150Z,7.30
2018-06-13T04:26:42.484Z,7.47
2018-06-13T04:29:10.811Z,6.90
2018-06-13T04:31:39.149Z,7.13
2018-06-13T04:34:07.610Z,7.67
2018-06-13T04:36:35.955Z,7.60
2018-06-13T04:39:07.671Z,7.50
2018-06-13T04:41:36.006Z,7.50
2018-06-13T04:44:04.349Z,8.23
2018-06-13T04:46:32.688Z,7.30
2018-06-13T04:49:01.036Z,7.50
2018-06-13T04:51:29.387Z,7.63
2018-06-13T04:53:57.706Z,8.67
2018-06-13T04:56:26.043Z,9.13
2018-06-13T04:58:54.363Z,10.30
2018-06-13T05:01:22.711Z,11.33
2018-06-13T05:03:51.062Z,11.87
2018-06-13T05:06:19.407Z,11.00
2018-06-13T05:08:47.728Z,11.23
2018-06-13T05:11:16.095Z,10.73
2018-06-13T05:13:44.417Z,11.00
2018-06-13T05:16:12.764Z,11.10
2018-06-13T05:18:41.087Z,9.87
2018-06-13T05:21:09.449Z,11.27
2018-06-13T05:23:37.783Z,10.07
2018-06-13T05:26:06.364Z,11.43
2018-06-13T05:28:34.756Z,11.00
2018-06-13T05:31:03.099Z,11.37
2018-06-13T05:33:31.429Z,12.00
2018-06-13T05:35:59.799Z,11.13
2018-06-13T05:38:28.129Z,12.30
2018-06-13T05:40:56.486Z,11.93
2018-06-13T05:43:24.811Z,13.77
2018-06-13T05:45:53.155Z,12.03
2018-06-13T05:48:21.489Z,11.70
2018-06-13T05:50:49.815Z,12.07
2018-06-13T05:53:18.177Z,12.53
2018-06-13T05:55:46.511Z,11.17
2018-06-13T05:58:14.860Z,12.23
2018-06-13T06:00:43.193Z,11.10
2018-06-13T06:03:11.967Z,13.17
2018-06-13T06:05:40.362Z,13.63
2018-06-13T06:08:08.711Z,13.13
2018-06-13T06:10:37.049Z,12.63
2018-06-13T06:13:05.431Z,14.73
2018-06-13T06:15:33.750Z,14.10
2018-06-13T06:18:02.086Z,13.73
2018-06-13T06:20:30.406Z,14.00
2018-06-13T06:22:58.756Z,15.67
2018-06-13T06:25:27.074Z,13.30
2018-06-13T06:27:55.415Z,13.67
2018-06-13T06:30:23.738Z,13.20
2018-06-13T06:32:52.086Z,13.07
2018-06-13T06:35:20.411Z,11.87
2018-06-13T06:37:48.759Z,13.30
2018-06-13T06:40:17.078Z,10.23
2018-06-13T06:42:45.415Z,10.63
2018-06-13T06:45:13.739Z,10.57
2018-06-13T06:47:42.135Z,9.33
2018-06-13T06:50:10.463Z,9.33
2018-06-13T06:52:38.831Z,8.27
2018-06-13T06:55:07.203Z,8.33
2018-06-13T06:57:35.539Z,7.67
2018-06-13T07:00:04.001Z,6.90
2018-06-13T07:02:32.343Z,7.13
2018-06-13T07:05:00.663Z,8.10
2018-06-13T07:07:29.003Z,7.23
2018-06-13T07:09:57.327Z,8.13
2018-06-13T07:12:25.688Z,8.60
2018-06-13T07:14:54.015Z,8.90
2018-06-13T07:17:22.360Z,7.60
2018-06-13T07:19:50.682Z,7.40
2018-06-13T07:22:19.031Z,8.57
2018-06-13T07:24:47.417Z,8.77
2018-06-13T07:27:15.739Z,10.63
2018-06-13T07:29:44.074Z,10.30
2018-06-13T07:32:12.506Z,9.83
2018-06-13T07:34:40.856Z,8.97
2018-06-13T07:37:09.202Z,8.43
2018-06-13T07:39:37.521Z,9.17
2018-06-13T07:42:06.054Z,9.13
2018-06-13T07:44:34.395Z,8.30
2018-06-13T07:47:02.775Z,7.77
2018-06-13T07:49:31.088Z,8.50
2018-06-13T07:51:59.411Z,8.23
2018-06-13T07:54:27.743Z,8.10
2018-06-13T07:56:56.055Z,8.23
2018-06-13T07:59:24.387Z,7.77
2018-06-13T08:01:52.700Z,7.03
2018-06-13T08:04:21.036Z,6.43
2018-06-13T08:06:49.362Z,7.50
2018-06-13T08:09:17.700Z,6.50
2018-06-13T08:11:46.031Z,6.50
2018-06-13T08:14:14.368Z,7.17
2018-06-13T08:16:42.683Z,7.20
2018-06-13T08:19:11.019Z,8.17
2018-06-13T08:21:39.422Z,8.00
2018-06-13T08:24:07.755Z,8.00
2018-06-13T08:26:36.087Z,9.10
2018-06-13T08:29:04.424Z,9.63
2018-06-13T08:31:32.744Z,9.63
2018-06-13T08:34:01.088Z,10.13
2018-06-13T08:36:29.407Z,10.20
2018-06-13T08:38:57.749Z,9.57
2018-06-13T08:41:26.067Z,9.93
2018-06-13T08:43:54.415Z,10.67
2018-06-13T08:46:22.735Z,9.83
2018-06-13T08:48:51.175Z,10.33
2018-06-13T08:51:19.504Z,10.50
2018-06-13T08:53:47.843Z,9.73
2018-06-13T08:56:16.167Z,9.63
2018-06-13T08:58:44.516Z,9.80
2018-06-13T09:01:12.849Z,8.70
2018-06-13T09:03:41.191Z,9.17
2018-06-13T09:06:09.515Z,9.80
2018-06-13T09:08:37.851Z,9.00
2018-06-13T09:11:06.175Z,9.00
2018-06-13T09:13:34.532Z,9.23
2018-06-13T09:16:02.971Z,9.00
2018-06-13T09:18:31.316Z,8.20
2018-06-13T09:20:59.663Z,8.20
2018-06-13T09:23:27.999Z,7.67
2018-06-13T09:25:56.333Z,7.60
2018-06-13T09:28:24.770Z,7.13
2018-06-13T09:30:53.091Z,8.20
2018-06-13T09:33:21.450Z,7.07
2018-06-13T09:35:49.771Z,7.47
2018-06-13T09:38:18.122Z,7.03
2018-06-13T09:40:46.447Z,7.10
2018-06-13T09:43:14.815Z,6.70
2018-06-13T09:45:43.146Z,6.27
2018-06-13T09:48:11.502Z,6.43
2018-06-13T09:50:39.939Z,6.70
2018-06-13T09:53:08.269Z,6.27
2018-06-13T09:55:36.600Z,6.90
2018-06-13T09:58:05.111Z,5.50
2018-06-13T10:00:38.815Z,6.00
2018-06-13T10:03:07.132Z,5.80
2018-06-13T10:05:35.478Z,5.77
2018-06-13T10:08:03.799Z,5.17
2018-06-13T10:10:32.140Z,4.80
2018-06-13T10:13:00.452Z,6.13
2018-06-13T10:15:28.811Z,6.37
2018-06-13T10:17:57.151Z,5.50
2018-06-13T10:20:25.492Z,5.60
2018-06-13T10:22:53.814Z,5.90
2018-06-13T10:25:22.165Z,6.00
2018-06-13T10:27:50.527Z,4.50
2018-06-13T10:30:18.863Z,4.70
2018-06-13T10:32:47.175Z,3.83
2018-06-13T10:35:15.511Z,4.07
2018-06-13T10:37:43.847Z,3.57
2018-06-13T10:40:12.179Z,3.30
2018-06-13T10:42:40.499Z,3.13
2018-06-13T10:45:08.849Z,3.17
2018-06-13T10:47:37.182Z,4.00
2018-06-13T10:50:05.659Z,3.40
2018-06-13T10:52:33.979Z,3.20
2018-06-13T10:55:02.311Z,3.57
2018-06-13T10:57:30.659Z,3.50
2018-06-13T10:59:58.995Z,3.30
2018-06-13T11:02:27.322Z,3.20
2018-06-13T11:04:55.667Z,2.70
2018-06-13T11:07:23.979Z,2.73
2018-06-13T11:09:52.373Z,2.97
2018-06-13T11:12:20.691Z,2.13
2018-06-13T11:14:49.023Z,2.40
2018-06-13T11:17:17.334Z,2.53
2018-06-13T11:19:45.684Z,1.77
2018-06-13T11:22:13.999Z,2.57
2018-06-13T11:24:42.331Z,2.10
2018-06-13T11:27:10.655Z,6.27
2018-06-13T11:29:38.999Z,2.63
2018-06-13T11:32:07.319Z,2.23
2018-06-13T11:34:35.662Z,2.43
2018-06-13T11:37:04.003Z,2.63
2018-06-13T11:39:32.342Z,2.57
2018-06-13T11:42:00.671Z,2.00
2018-06-13T11:44:29.011Z,2.20
2018-06-13T11:46:57.327Z,1.90
2018-06-13T11:49:25.723Z,2.83
2018-06-13T11:51:54.047Z,2.10
2018-06-13T11:54:22.394Z,2.00
2018-06-13T11:56:50.736Z,2.47
2018-06-13T11:59:19.055Z,2.70
2018-06-13T12:01:47.479Z,2.23
2018-06-13T12:04:15.767Z,2.43
2018-06-13T12:06:44.126Z,2.37
2018-06-13T12:09:12.463Z,2.60
2018-06-13T12:11:40.879Z,3.33
2018-06-13T12:14:09.139Z,2.90
2018-06-13T12:16:37.482Z,3.10
2018-06-13T12:19:05.803Z,3.57
2018-06-13T12:21:34.157Z,3.20
2018-06-13T12:24:02.481Z,4.00
2018-06-13T12:26:30.819Z,3.33
2018-06-13T12:28:59.134Z,3.63
2018-06-13T12:31:27.467Z,5.13
2018-06-13T12:33:56.076Z,5.13
2018-06-13T12:36:24.414Z,5.80
2018-06-13T12:38:52.731Z,5.13
2018-06-13T12:41:21.070Z,5.10
2018-06-13T12:43:49.395Z,5.97
2018-06-13T12:46:17.731Z,5.80
2018-06-13T12:48:46.064Z,6.83
2018-06-13T12:51:14.495Z,6.30
2018-06-13T12:53:42.811Z,6.50
2018-06-13T12:56:11.147Z,7.00
2018-06-13T12:58:39.502Z,7.87
2018-06-13T13:01:07.841Z,8.60
2018-06-13T13:03:36.178Z,8.70
2018-06-13T13:06:04.268Z,9.90
2018-06-13T13:08:32.603Z,10.67
2018-06-13T13:11:00.970Z,10.00
2018-06-13T13:13:29.294Z,9.17
2018-06-13T13:15:57.633Z,7.57
2018-06-13T13:18:25.976Z,7.00
2018-06-13T13:20:54.321Z,6.77
2018-06-13T13:23:22.646Z,7.87
2018-06-13T13:25:50.987Z,6.40
2018-06-13T13:28:19.329Z,6.50
2018-06-13T13:30:47.708Z,6.17
2018-06-13T13:33:16.027Z,6.43
2018-06-13T13:35:44.414Z,7.07
2018-06-13T13:38:12.711Z,7.40
2018-06-13T13:40:41.044Z,7.10
2018-06-13T13:43:09.379Z,7.87
2018-06-13T13:45:37.770Z,7.50
2018-06-13T13:48:06.155Z,8.03
2018-06-13T13:50:34.487Z,7.77
2018-06-13T13:53:02.799Z,8.23
2018-06-13T13:55:31.195Z,6.97
2018-06-13T13:57:59.589Z,6.40
2018-06-13T14:00:27.899Z,6.20
2018-06-13T14:02:56.269Z,6.67
2018-06-13T14:05:24.636Z,6.30
2018-06-13T14:07:53.103Z,6.50
2018-06-13T14:10:21.423Z,6.90
2018-06-13T14:12:49.765Z,5.77
2018-06-13T14:15:18.083Z,6.57
2018-06-13T14:17:46.581Z,6.10
2018-06-13T14:20:14.927Z,5.83
2018-06-13T14:22:43.276Z,6.27
2018-06-13T14:25:11.627Z,5.27
2018-06-13T14:27:39.960Z,5.60
2018-06-13T14:30:08.276Z,5.90
2018-06-13T14:32:36.602Z,5.53
2018-06-13T14:35:05.097Z,5.50
2018-06-13T14:37:33.448Z,5.50
2018-06-13T14:40:01.760Z,5.33
2018-06-13T14:42:30.133Z,5.27
2018-06-13T14:44:58.604Z,6.97
2018-06-13T14:47:26.949Z,6.87
2018-06-13T14:49:55.270Z,8.20
2018-06-13T14:52:23.635Z,6.50
2018-06-13T14:54:51.997Z,6.70
2018-06-13T14:57:20.352Z,6.23
2018-06-13T14:59:48.689Z,5.77
2018-06-13T15:02:17.063Z,5.67
2018-06-13T15:04:45.387Z,4.93
2018-06-13T15:07:13.727Z,4.43
2018-06-13T15:09:42.175Z,4.90
2018-06-13T15:12:10.531Z,5.07
2018-06-13T15:14:38.870Z,4.50
2018-06-13T15:17:07.248Z,4.43
2018-06-13T15:19:35.575Z,5.00
2018-06-13T15:22:04.075Z,3.90
2018-06-13T15:24:32.405Z,4.77
2018-06-13T15:27:00.748Z,3.90
2018-06-13T15:29:29.099Z,5.70
2018-06-13T15:31:57.515Z,5.03
2018-06-13T15:34:25.861Z,4.80
2018-06-13T15:36:54.264Z,4.70
2018-06-13T15:39:22.595Z,4.90
2018-06-13T15:41:50.955Z,6.50
2018-06-13T15:44:19.310Z,6.10
2018-06-13T15:46:47.679Z,5.63
2018-06-13T15:49:16.017Z,6.27
2018-06-13T15:51:44.405Z,5.03
2018-06-13T15:54:12.723Z,5.77
2018-06-13T15:56:41.195Z,4.50
2018-06-13T15:59:09.552Z,5.03
2018-06-13T16:01:37.884Z,4.67
2018-06-13T16:04:06.387Z,4.17
2018-06-13T16:06:34.722Z,4.50
2018-06-13T16:09:03.274Z,3.80
2018-06-13T16:11:31.636Z,4.60
2018-06-13T16:13:59.978Z,3.70
2018-06-13T16:16:28.307Z,3.73
2018-06-13T16:18:56.640Z,4.03
2018-06-13T16:21:24.959Z,4.47
2018-06-13T16:23:53.386Z,4.37
2018-06-13T16:26:21.714Z,3.90
2018-06-13T16:28:50.063Z,4.77
2018-06-13T16:31:18.387Z,4.07
2018-06-13T16:33:46.739Z,3.90
2018-06-13T16:36:15.077Z,4.33
2018-06-13T16:38:43.445Z,4.03
2018-06-13T16:41:11.787Z,4.17
2018-06-13T16:43:40.131Z,4.23
2018-06-13T16:46:08.451Z,3.97
2018-06-13T16:48:36.878Z,4.47
2018-06-13T16:51:16.462Z,3.60
2018-06-13T16:53:51.442Z,3.00
2018-06-13T16:56:19.787Z,3.30
2018-06-13T16:58:48.311Z,3.60
2018-06-13T17:01:17.191Z,2.90
2018-06-13T17:03:45.539Z,3.03
2018-06-13T17:06:13.911Z,3.03
2018-06-13T17:08:42.263Z,3.03
2018-06-13T17:11:10.583Z,2.53
2018-06-13T17:13:38.960Z,3.13
2018-06-13T17:16:07.323Z,4.57
2018-06-13T17:18:35.667Z,3.40
2018-06-13T17:21:04.140Z,4.20
2018-06-13T17:23:32.488Z,3.60
2018-06-13T17:26:00.803Z,3.07
2018-06-13T17:28:29.149Z,2.87
2018-06-13T17:30:57.488Z,3.10
2018-06-13T17:33:25.827Z,2.67
2018-06-13T17:35:53.882Z,3.20
2018-06-13T17:38:22.228Z,2.57
2018-06-13T17:40:50.683Z,2.93
2018-06-13T17:43:19.041Z,2.80
2018-06-13T17:45:47.395Z,3.33
2018-06-13T17:48:16.011Z,3.10
2018-06-13T17:50:44.334Z,2.70
2018-06-13T17:53:12.691Z,2.97
2018-06-13T17:55:41.018Z,3.17
2018-06-13T17:58:09.370Z,2.47
2018-06-13T18:00:37.707Z,2.77
2018-06-13T18:03:06.095Z,2.83
2018-06-13T18:05:34.448Z,2.17
2018-06-13T18:08:02.775Z,2.13
2018-06-13T18:10:31.330Z,2.30
2018-06-13T18:12:59.809Z,2.60
2018-06-13T18:15:28.234Z,2.40
2018-06-13T18:17:56.556Z,3.00
2018-06-13T18:20:24.906Z,1.93
2018-06-13T18:22:53.295Z,2.50
2018-06-13T18:25:21.695Z,2.87
2018-06-13T18:27:50.007Z,2.00
2018-06-13T18:30:18.342Z,2.27
2018-06-13T18:32:46.659Z,2.20
2018-06-13T18:35:15.079Z,2.20
2018-06-13T18:37:43.396Z,2.57
2018-06-13T18:40:11.752Z,2.20
2018-06-13T18:42:40.128Z,1.90
2018-06-13T18:45:08.540Z,2.07
2018-06-13T18:47:36.875Z,2.00
2018-06-13T18:50:05.323Z,1.83
2018-06-13T18:52:33.757Z,2.40
2018-06-13T18:55:02.283Z,2.40
2018-06-13T18:57:30.727Z,2.60
2018-06-13T18:59:59.103Z,2.07
2018-06-13T19:02:27.421Z,2.23
2018-06-13T19:04:55.887Z,2.43
2018-06-13T19:07:24.259Z,1.97
2018-06-13T19:09:52.587Z,2.40
2018-06-13T19:12:20.943Z,2.10
2018-06-13T19:14:49.268Z,2.13
2018-06-13T19:17:17.627Z,2.87
2018-06-13T19:19:45.996Z,2.10
2018-06-13T19:22:14.346Z,2.13
2018-06-13T19:24:42.739Z,2.20
2018-06-13T19:27:11.083Z,2.57
2018-06-13T19:29:39.460Z,2.13
2018-06-13T19:32:07.930Z,2.30
2018-06-13T19:34:36.283Z,2.17
2018-06-13T19:37:04.667Z,2.20
2018-06-13T19:39:33.043Z,2.50
2018-06-13T19:42:01.400Z,2.57
2018-06-13T19:44:29.748Z,2.83
2018-06-13T19:47:03.611Z,3.00
2018-06-13T19:49:31.947Z,2.80
2018-06-13T19:52:00.287Z,2.63
2018-06-13T19:54:33.933Z,2.70
2018-06-13T19:57:02.383Z,2.97
2018-06-13T19:59:30.814Z,2.80
2018-06-13T20:01:59.172Z,2.80
2018-06-13T20:04:32.859Z,3.20
2018-06-13T20:07:01.184Z,2.60
2018-06-13T20:09:29.635Z,3.13
2018-06-13T20:12:02.175Z,2.90
2018-06-13T20:14:35.879Z,3.43
2018-06-13T20:17:09.538Z,2.60
2018-06-13T20:19:39.211Z,3.10
2018-06-13T20:22:07.543Z,4.17
2018-06-13T20:24:35.985Z,3.13
2018-06-13T20:27:09.802Z,2.93
2018-06-13T20:29:43.475Z,3.53
2018-06-13T20:32:11.799Z,6.43
2018-06-13T20:34:40.151Z,4.47
2018-06-13T20:37:08.471Z,5.90
2018-06-13T20:39:36.815Z,3.40
2018-06-13T20:42:04.862Z,10.20
2018-06-13T20:44:33.251Z,11.00
2018-06-13T20:47:01.587Z,10.57
2018-06-13T20:49:29.941Z,7.30
2018-06-13T20:51:58.263Z,9.60
2018-06-13T20:54:26.603Z,7.40
2018-06-13T20:56:54.960Z,6.63
2018-06-13T20:59:23.319Z,5.33
2018-06-13T21:01:51.659Z,5.17
2018-06-13T21:04:20.003Z,6.50
2018-06-13T21:06:48.331Z,4.60
2018-06-13T21:09:16.675Z,4.77
2018-06-13T21:11:44.990Z,6.33
2018-06-13T21:14:13.331Z,6.97
2018-06-13T21:16:41.660Z,6.80
2018-06-13T21:19:10.008Z,6.10
2018-06-13T21:21:38.339Z,6.30
2018-06-13T21:24:06.651Z,6.00
2018-06-13T21:26:35.016Z,6.03
2018-06-13T21:29:03.318Z,4.90
2018-06-13T21:31:31.401Z,5.43
2018-06-13T21:33:59.718Z,6.00
2018-06-13T21:36:28.068Z,5.40
2018-06-13T21:38:56.380Z,6.87
2018-06-13T21:41:24.450Z,11.70
2018-06-13T21:43:52.804Z,9.30
2018-06-13T21:46:21.167Z,6.93
2018-06-13T21:48:49.588Z,8.40
2018-06-13T21:51:17.950Z,8.43
2018-06-13T21:53:46.291Z,11.67
2018-06-13T21:56:14.651Z,13.57
2018-06-13T21:58:42.978Z,10.53
2018-06-13T22:01:11.355Z,5.00
2018-06-13T22:03:39.679Z,4.83
2018-06-13T22:06:08.043Z,5.27
2018-06-13T22:08:36.511Z,4.77
2018-06-13T22:11:04.841Z,8.43
2018-06-13T22:13:33.282Z,9.70
2018-06-13T22:16:01.703Z,6.37
2018-06-13T22:18:30.051Z,4.70
2018-06-13T22:20:58.379Z,4.70
2018-06-13T22:23:26.728Z,5.20
2018-06-13T22:25:55.071Z,5.53
2018-06-13T22:28:23.438Z,6.40
2018-06-13T22:30:51.759Z,6.57
2018-06-13T22:33:20.186Z,7.40
2018-06-13T22:35:48.527Z,7.63
2018-06-13T22:38:16.879Z,5.90
2018-06-13T22:40:45.219Z,5.40
2018-06-13T22:43:13.591Z,6.20
2018-06-13T22:45:41.979Z,6.07
2018-06-13T22:48:10.327Z,6.73
2018-06-13T22:50:38.679Z,7.47
2018-06-13T22:53:07.060Z,6.50
2018-06-13T22:55:35.413Z,8.47
2018-06-13T22:58:03.970Z,7.53
2018-06-13T23:00:42.544Z,7.60
2018-06-13T23:03:10.888Z,6.50
2018-06-13T23:05:39.209Z,5.77
2018-06-13T23:08:07.547Z,7.73
2018-06-13T23:10:35.875Z,6.73
2018-06-13T23:13:04.223Z,7.50
2018-06-13T23:15:32.531Z,6.33
2018-06-13T23:18:00.875Z,6.43
2018-06-13T23:20:29.195Z,6.40
2018-06-13T23:22:57.546Z,6.43
2018-06-13T23:25:25.864Z,6.57
2018-06-13T23:27:54.205Z,6.50
2018-06-13T23:30:22.551Z,6.17
2018-06-13T23:32:51.029Z,6.07
2018-06-13T23:35:19.363Z,5.77
2018-06-13T23:37:47.690Z,5.70
2018-06-13T23:40:16.033Z,6.57
2018-06-13T23:42:44.358Z,5.65
2018-06-13T23:45:13.579Z,6.10
2018-06-13T23:47:41.919Z,6.30
2018-06-13T23:50:10.262Z,5.10
2018-06-13T23:52:38.581Z,5.80
2018-06-13T23:55:07.015Z,5.25
2018-06-13T23:57:35.336Z,5.87
